createdAt,value
2023-05-31T00:00:01.514Z,16.9
2023-05-31T00:01:08.376Z,16.9
2023-05-31T00:02:01.131Z,16.8
2023-05-31T00:03:01.165Z,16.8
2023-05-31T00:04:01.124Z,16.8
2023-05-31T00:05:01.126Z,16.7
2023-05-31T00:06:11.452Z,16.7
2023-05-31T00:07:01.021Z,16.6
2023-05-31T00:08:01.141Z,16.6
2023-05-31T00:09:01.051Z,16.6
2023-05-31T00:10:01.070Z,16.5
2023-05-31T00:11:15.413Z,16.5
2023-05-31T00:12:01.755Z,16.5
2023-05-31T00:13:02.085Z,16.5
2023-05-31T00:14:01.465Z,16.5
2023-05-31T00:15:01.675Z,16.5
2023-05-31T00:16:01.286Z,16.5
2023-05-31T00:18:01.929Z,16.5
2023-05-31T00:19:01.149Z,16.5
2023-05-31T00:20:01.119Z,16.5
2023-05-31T00:21:01.257Z,16.5
2023-05-31T00:22:00.503Z,16.6
2023-05-31T00:23:00.140Z,16.6
2023-05-31T00:23:59.725Z,16.6
2023-05-31T00:25:01.913Z,16.6
2023-05-31T00:26:01.719Z,16.5
2023-05-31T00:27:01.079Z,16.5
2023-05-31T00:28:01.055Z,16.5
2023-05-31T00:29:01.075Z,16.4
2023-05-31T00:30:01.211Z,16.3
2023-05-31T00:31:01.743Z,16.3
2023-05-31T00:32:01.097Z,16.3
2023-05-31T00:33:01.365Z,16.3
2023-05-31T00:34:01.039Z,16.3
2023-05-31T00:35:01.132Z,16.3
2023-05-31T00:36:01.156Z,16.2
2023-05-31T00:37:01.136Z,16.2
2023-05-31T00:38:01.476Z,16.2
2023-05-31T00:39:01.352Z,16.2
2023-05-31T00:40:02.087Z,16.2
2023-05-31T00:41:01.419Z,16.2
2023-05-31T00:42:01.076Z,16.2
2023-05-31T00:43:00.768Z,16.2
2023-05-31T00:44:00.452Z,16.2
2023-05-31T00:45:00.046Z,16.2
2023-05-31T00:45:59.746Z,16.2
2023-05-31T00:47:01.763Z,16.1
2023-05-31T00:48:02.308Z,16.1
2023-05-31T00:49:01.471Z,16.1
2023-05-31T00:50:01.402Z,16.1
2023-05-31T00:51:01.360Z,16.1
2023-05-31T00:52:01.133Z,16.1
2023-05-31T00:53:01.120Z,16.1
2023-05-31T00:54:01.029Z,16.2
2023-05-31T00:55:01.012Z,16.3
2023-05-31T00:56:01.048Z,16.3
2023-05-31T00:57:01.104Z,16.3
2023-05-31T00:58:01.103Z,16.3
2023-05-31T00:59:01.466Z,16.3
2023-05-31T01:00:01.060Z,16.3
2023-05-31T01:01:01.394Z,16.3
2023-05-31T01:02:02.070Z,16.3
2023-05-31T01:03:01.172Z,16.3
2023-05-31T01:04:01.208Z,16.3
2023-05-31T01:05:01.487Z,16.3
2023-05-31T01:06:01.227Z,16.3
2023-05-31T01:07:01.121Z,16.3
2023-05-31T01:08:01.126Z,16.3
2023-05-31T01:09:01.026Z,16.4
2023-05-31T01:10:01.198Z,16.4
2023-05-31T01:11:01.401Z,16.4
2023-05-31T01:12:01.460Z,16.4
2023-05-31T01:13:02.153Z,16.4
2023-05-31T01:14:02.132Z,16.4
2023-05-31T01:15:03.944Z,16.4
2023-05-31T01:16:02.321Z,16.4
2023-05-31T01:17:01.100Z,16.4
2023-05-31T01:18:01.162Z,16.4
2023-05-31T01:19:02.451Z,16.3
2023-05-31T01:20:02.033Z,16.3
2023-05-31T01:21:01.238Z,16.3
2023-05-31T01:22:01.496Z,16.3
2023-05-31T01:23:02.082Z,16.3
2023-05-31T01:24:02.081Z,16.3
2023-05-31T01:25:01.668Z,16.3
2023-05-31T01:26:01.255Z,16.3
2023-05-31T01:27:02.618Z,16.3
2023-05-31T01:28:01.956Z,16.2
2023-05-31T01:29:01.201Z,16.2
2023-05-31T01:30:01.941Z,16.2
2023-05-31T01:31:01.298Z,16.2
2023-05-31T01:32:01.449Z,16.2
2023-05-31T01:33:02.719Z,16.2
2023-05-31T01:34:01.103Z,16.1
2023-05-31T01:35:01.112Z,16.1
2023-05-31T01:36:01.099Z,16.1
2023-05-31T01:37:04.981Z,16.1
2023-05-31T01:38:02.485Z,16.1
2023-05-31T01:39:00.975Z,16.1
2023-05-31T01:40:01.449Z,16
2023-05-31T01:41:01.556Z,16
2023-05-31T01:42:07.762Z,16
2023-05-31T01:43:01.863Z,16
2023-05-31T01:44:01.738Z,15.9
2023-05-31T01:45:01.744Z,15.9
2023-05-31T01:46:02.635Z,15.9
2023-05-31T01:47:10.707Z,15.8
2023-05-31T01:48:01.426Z,15.8
2023-05-31T01:49:01.398Z,15.8
2023-05-31T01:50:04.484Z,15.8
2023-05-31T01:51:02.374Z,15.8
2023-05-31T01:52:13.297Z,15.8
2023-05-31T01:53:01.157Z,15.8
2023-05-31T01:54:00.916Z,15.8
2023-05-31T01:55:00.600Z,15.8
2023-05-31T01:56:00.452Z,15.8
2023-05-31T01:57:15.643Z,15.8
2023-05-31T01:58:01.519Z,15.8
2023-05-31T01:59:02.053Z,15.8
2023-05-31T02:00:01.610Z,15.7
2023-05-31T02:01:01.614Z,15.7
2023-05-31T02:02:01.064Z,15.7
2023-05-31T02:03:01.187Z,15.7
2023-05-31T02:04:01.137Z,15.7
2023-05-31T02:05:01.082Z,15.7
2023-05-31T02:06:01.098Z,15.6
2023-05-31T02:07:01.439Z,15.6
2023-05-31T02:08:01.138Z,15.6
2023-05-31T02:09:01.484Z,15.6
2023-05-31T02:10:01.185Z,15.6
2023-05-31T02:11:01.372Z,15.5
2023-05-31T02:12:01.826Z,15.5
2023-05-31T02:13:01.257Z,15.5
2023-05-31T02:14:01.959Z,15.5
2023-05-31T02:15:01.980Z,15.5
2023-05-31T02:16:01.059Z,15.4
2023-05-31T02:17:01.049Z,15.5
2023-05-31T02:18:01.475Z,15.5
2023-05-31T02:19:03.876Z,15.4
2023-05-31T02:20:01.082Z,15.4
2023-05-31T02:21:00.869Z,15.3
2023-05-31T02:22:01.102Z,15.3
2023-05-31T02:23:01.115Z,15.3
2023-05-31T02:24:01.047Z,15.3
2023-05-31T02:25:01.152Z,15.3
2023-05-31T02:26:01.523Z,15.3
2023-05-31T02:27:01.537Z,15.3
2023-05-31T02:28:01.636Z,15.3
2023-05-31T02:29:01.176Z,15.3
2023-05-31T02:30:01.750Z,15.3
2023-05-31T02:31:02.520Z,15.3
2023-05-31T02:32:01.140Z,15.3
2023-05-31T02:33:01.843Z,15.3
2023-05-31T02:34:01.181Z,15.3
2023-05-31T02:35:01.417Z,15.3
2023-05-31T02:36:01.101Z,15.3
2023-05-31T02:37:01.083Z,15.3
2023-05-31T02:38:01.094Z,15.3
2023-05-31T02:39:01.435Z,15.3
2023-05-31T02:40:00.822Z,15.3
2023-05-31T02:41:01.662Z,15.3
2023-05-31T02:42:02.545Z,15.3
2023-05-31T02:43:01.513Z,15.3
2023-05-31T02:44:01.224Z,15.2
2023-05-31T02:45:01.908Z,15.2
2023-05-31T02:46:01.176Z,15.2
2023-05-31T02:47:01.186Z,15.2
2023-05-31T02:48:01.183Z,15.2
2023-05-31T02:49:01.418Z,15.2
2023-05-31T02:50:01.032Z,15.2
2023-05-31T02:51:02.201Z,15.2
2023-05-31T02:52:01.926Z,15.2
2023-05-31T02:53:01.080Z,15.1
2023-05-31T02:54:01.094Z,15.2
2023-05-31T02:55:01.114Z,15.1
2023-05-31T02:56:01.268Z,15.1
2023-05-31T02:57:02.009Z,15.1
2023-05-31T02:58:01.507Z,15.1
2023-05-31T02:59:00.713Z,15.1
2023-05-31T03:00:00.412Z,15.1
2023-05-31T03:01:00.418Z,15.1
2023-05-31T03:02:00.264Z,15.1
2023-05-31T03:02:59.950Z,15.1
2023-05-31T03:04:00.331Z,15
2023-05-31T03:04:59.918Z,15.1
2023-05-31T03:05:59.513Z,15.1
2023-05-31T03:07:01.280Z,15
2023-05-31T03:08:02.033Z,15
2023-05-31T03:09:01.128Z,15
2023-05-31T03:10:01.118Z,15.1
2023-05-31T03:11:01.374Z,15
2023-05-31T03:12:01.115Z,15
2023-05-31T03:13:01.042Z,15
2023-05-31T03:14:01.036Z,15
2023-05-31T03:15:01.685Z,15
2023-05-31T03:16:01.387Z,15
2023-05-31T03:17:01.371Z,15
2023-05-31T03:18:01.916Z,14.9
2023-05-31T03:19:02.074Z,14.8
2023-05-31T03:20:01.068Z,14.8
2023-05-31T03:21:01.224Z,14.8
2023-05-31T03:22:01.070Z,14.8
2023-05-31T03:23:03.875Z,14.8
2023-05-31T03:24:01.118Z,14.8
2023-05-31T03:25:01.205Z,14.8
2023-05-31T03:26:01.166Z,14.8
2023-05-31T03:27:01.110Z,14.8
2023-05-31T03:28:06.433Z,14.8
2023-05-31T03:29:00.792Z,14.8
2023-05-31T03:30:00.380Z,14.8
2023-05-31T03:31:00.306Z,14.8
2023-05-31T03:32:00.059Z,14.8
2023-05-31T03:33:08.796Z,14.8
2023-05-31T03:34:01.052Z,14.8
2023-05-31T03:35:01.047Z,14.9
2023-05-31T03:36:01.103Z,14.9
2023-05-31T03:37:01.681Z,15
2023-05-31T03:38:12.590Z,15
2023-05-31T03:39:01.491Z,15
2023-05-31T03:40:01.074Z,15.1
2023-05-31T03:41:01.232Z,15.1
2023-05-31T03:42:04.166Z,15.2
2023-05-31T03:43:15.362Z,15.3
2023-05-31T03:44:01.762Z,15.3
2023-05-31T03:45:02.071Z,15.3
2023-05-31T03:46:00.711Z,15.3
2023-05-31T03:47:00.431Z,15.4
2023-05-31T03:48:00.014Z,15.5
2023-05-31T03:48:59.806Z,15.6
2023-05-31T03:50:05.022Z,15.6
2023-05-31T03:51:03.303Z,15.7
2023-05-31T03:52:01.488Z,15.7
2023-05-31T03:53:02.090Z,15.8
2023-05-31T03:54:01.233Z,15.8
2023-05-31T03:55:01.108Z,15.9
2023-05-31T03:56:01.105Z,16
2023-05-31T03:57:01.098Z,16
2023-05-31T03:58:01.104Z,16
2023-05-31T03:59:00.788Z,16.1
2023-05-31T04:00:01.108Z,16.1
2023-05-31T04:01:01.480Z,16.1
2023-05-31T04:02:04.342Z,16.2
2023-05-31T04:03:04.980Z,16.3
2023-05-31T04:04:02.484Z,16.3
2023-05-31T04:05:01.283Z,16.4
2023-05-31T04:06:01.862Z,16.5
2023-05-31T04:07:01.139Z,16.5
2023-05-31T04:08:01.187Z,16.5
2023-05-31T04:09:01.101Z,16.6
2023-05-31T04:10:01.956Z,16.6
2023-05-31T04:11:01.364Z,16.6
2023-05-31T04:12:01.097Z,16.6
2023-05-31T04:13:01.107Z,16.7
2023-05-31T04:14:01.440Z,16.7
2023-05-31T04:15:01.592Z,16.8
2023-05-31T04:16:01.162Z,16.8
2023-05-31T04:17:01.142Z,16.8
2023-05-31T04:18:01.177Z,16.8
2023-05-31T04:19:00.819Z,16.8
2023-05-31T04:20:01.066Z,16.9
2023-05-31T04:21:01.751Z,16.9
2023-05-31T04:22:01.488Z,16.9
2023-05-31T04:23:01.391Z,17
2023-05-31T04:24:01.094Z,17
2023-05-31T04:25:01.096Z,17
2023-05-31T04:26:01.100Z,17.1
2023-05-31T04:27:01.085Z,17.1
2023-05-31T04:28:01.123Z,17.1
2023-05-31T04:29:01.119Z,17.1
2023-05-31T04:30:01.761Z,17.1
2023-05-31T04:31:02.419Z,17.2
2023-05-31T04:32:01.583Z,17.2
2023-05-31T04:33:01.869Z,17.1
2023-05-31T04:34:01.174Z,17.1
2023-05-31T04:35:01.933Z,17.2
2023-05-31T04:36:01.087Z,17.3
2023-05-31T04:37:01.859Z,17.3
2023-05-31T04:38:02.113Z,17.4
2023-05-31T04:39:01.584Z,17.4
2023-05-31T04:40:02.436Z,17.5
2023-05-31T04:41:01.351Z,17.5
2023-05-31T04:42:07.998Z,17.6
2023-05-31T04:43:01.152Z,17.6
2023-05-31T04:44:01.567Z,17.6
2023-05-31T04:45:01.522Z,17.6
2023-05-31T04:46:01.461Z,17.7
2023-05-31T04:47:01.814Z,17.8
2023-05-31T04:48:01.369Z,17.8
2023-05-31T04:49:02.041Z,17.8
2023-05-31T04:50:01.157Z,17.8
2023-05-31T04:51:01.320Z,17.8
2023-05-31T04:52:01.152Z,17.9
2023-05-31T04:53:01.196Z,17.8
2023-05-31T04:54:01.050Z,17.8
2023-05-31T04:55:01.093Z,17.8
2023-05-31T04:56:01.446Z,17.9
2023-05-31T04:57:01.229Z,18
2023-05-31T04:58:01.078Z,18
2023-05-31T04:59:03.391Z,18
2023-05-31T05:00:01.022Z,18
2023-05-31T05:01:01.697Z,18
2023-05-31T05:02:01.043Z,18.1
2023-05-31T05:03:01.374Z,18.1
2023-05-31T05:04:05.343Z,18.1
2023-05-31T05:05:02.138Z,18.1
2023-05-31T05:06:01.023Z,18.1
2023-05-31T05:07:01.061Z,18.1
2023-05-31T05:08:01.063Z,18.1
2023-05-31T05:09:06.833Z,18.1
2023-05-31T05:10:01.380Z,18.1
2023-05-31T05:11:02.146Z,18.1
2023-05-31T05:12:01.144Z,18.1
2023-05-31T05:13:01.997Z,18.1
2023-05-31T05:14:10.728Z,18.1
2023-05-31T05:15:01.471Z,18.1
2023-05-31T05:16:01.221Z,18.2
2023-05-31T05:17:01.188Z,18.2
2023-05-31T05:18:01.173Z,18.2
2023-05-31T05:19:14.129Z,18.3
2023-05-31T05:20:01.836Z,18.3
2023-05-31T05:21:01.153Z,18.3
2023-05-31T05:22:01.180Z,18.2
2023-05-31T05:23:01.182Z,18.2
2023-05-31T05:24:16.915Z,18.3
2023-05-31T05:25:04.036Z,18.3
2023-05-31T05:26:01.060Z,18.5
2023-05-31T05:27:01.177Z,18.6
2023-05-31T05:28:01.576Z,18.6
2023-05-31T05:29:01.118Z,18.6
2023-05-31T05:30:01.432Z,18.5
2023-05-31T05:31:01.371Z,18.5
2023-05-31T05:32:01.160Z,18.4
2023-05-31T05:33:01.209Z,18.3
2023-05-31T05:34:01.428Z,18.3
2023-05-31T05:35:01.124Z,18.5
2023-05-31T05:36:01.114Z,18.8
2023-05-31T05:37:01.121Z,19
2023-05-31T05:38:01.533Z,19.1
2023-05-31T05:39:01.041Z,19.4
2023-05-31T05:40:00.845Z,19.7
2023-05-31T05:41:00.622Z,20
2023-05-31T05:42:00.341Z,20.3
2023-05-31T05:43:02.535Z,20.5
2023-05-31T05:44:04.148Z,20.6
2023-05-31T05:45:01.759Z,20.8
2023-05-31T05:46:01.581Z,20.8
2023-05-31T05:47:01.123Z,20.9
2023-05-31T05:48:01.136Z,20.9
2023-05-31T05:49:01.113Z,20.8
2023-05-31T05:50:01.213Z,20.8
2023-05-31T05:51:01.466Z,20.8
2023-05-31T05:52:02.283Z,20.9
2023-05-31T05:53:01.334Z,21
2023-05-31T05:54:01.949Z,21.1
2023-05-31T05:55:02.387Z,21.1
2023-05-31T05:56:01.244Z,21.1
2023-05-31T05:57:01.482Z,21
2023-05-31T05:58:01.184Z,20.9
2023-05-31T05:59:01.082Z,20.8
2023-05-31T06:00:00.770Z,20.8
2023-05-31T06:01:01.317Z,20.8
2023-05-31T06:02:01.104Z,20.8
2023-05-31T06:03:01.172Z,20.8
2023-05-31T06:04:01.099Z,20.7
2023-05-31T06:05:01.369Z,20.5
2023-05-31T06:06:01.540Z,20.3
2023-05-31T06:07:01.252Z,20.1
2023-05-31T06:08:01.136Z,20
2023-05-31T06:09:01.075Z,20
2023-05-31T06:10:01.023Z,19.9
2023-05-31T06:11:01.262Z,19.9
2023-05-31T06:12:01.489Z,19.9
2023-05-31T06:13:01.829Z,19.9
2023-05-31T06:14:00.954Z,19.8
2023-05-31T06:15:01.352Z,19.8
2023-05-31T06:16:02.275Z,19.7
2023-05-31T06:17:01.177Z,19.6
2023-05-31T06:18:01.181Z,19.6
2023-05-31T06:19:02.010Z,19.7
2023-05-31T06:20:00.874Z,19.7
2023-05-31T06:21:01.102Z,19.8
2023-05-31T06:22:01.116Z,19.8
2023-05-31T06:23:01.476Z,19.7
2023-05-31T06:24:01.113Z,19.6
2023-05-31T06:25:01.302Z,19.6
2023-05-31T06:26:01.405Z,19.5
2023-05-31T06:27:01.051Z,19.4
2023-05-31T06:28:01.115Z,19.2
2023-05-31T06:29:01.052Z,19
2023-05-31T06:30:01.061Z,19
2023-05-31T06:31:01.358Z,18.9
2023-05-31T06:32:01.935Z,18.9
2023-05-31T06:33:01.184Z,18.9
2023-05-31T06:34:01.099Z,18.8
2023-05-31T06:35:01.484Z,18.8
2023-05-31T06:36:01.100Z,18.8
2023-05-31T06:37:01.097Z,18.8
2023-05-31T06:38:01.112Z,18.8
2023-05-31T06:39:01.122Z,18.8
2023-05-31T06:40:00.803Z,18.9
2023-05-31T06:41:01.245Z,18.9
2023-05-31T06:42:01.277Z,18.8
2023-05-31T06:43:02.261Z,18.8
2023-05-31T06:44:01.319Z,18.8
2023-05-31T06:45:01.396Z,18.8
2023-05-31T06:46:01.133Z,18.8
2023-05-31T06:47:01.849Z,18.7
2023-05-31T06:48:01.280Z,18.7
2023-05-31T06:49:11.873Z,18.7
2023-05-31T06:50:04.436Z,18.7
2023-05-31T06:51:01.652Z,18.7
2023-05-31T06:52:01.299Z,18.6
2023-05-31T06:53:01.112Z,18.6
2023-05-31T06:54:01.118Z,18.6
2023-05-31T06:55:08.490Z,18.6
2023-05-31T06:56:01.024Z,18.6
2023-05-31T06:57:01.027Z,18.7
2023-05-31T06:58:01.026Z,18.7
2023-05-31T06:59:01.055Z,18.7
2023-05-31T07:00:10.125Z,18.7
2023-05-31T07:01:01.707Z,18.7
2023-05-31T07:02:01.060Z,18.8
2023-05-31T07:03:01.220Z,18.8
2023-05-31T07:04:01.182Z,18.8
2023-05-31T07:05:14.246Z,18.8
2023-05-31T07:06:01.099Z,18.8
2023-05-31T07:07:01.092Z,18.7
2023-05-31T07:08:01.294Z,18.7
2023-05-31T07:09:01.311Z,18.6
2023-05-31T07:10:16.793Z,18.6
2023-05-31T07:11:02.326Z,18.6
2023-05-31T07:12:01.897Z,18.6
2023-05-31T07:13:02.595Z,18.6
2023-05-31T07:14:01.961Z,18.7
2023-05-31T07:15:01.259Z,18.7
2023-05-31T07:16:01.076Z,18.8
2023-05-31T07:17:01.667Z,18.8
2023-05-31T07:18:02.140Z,18.9
2023-05-31T07:19:02.122Z,18.9
2023-05-31T07:20:00.868Z,19
2023-05-31T07:21:01.314Z,19
2023-05-31T07:22:01.102Z,19
2023-05-31T07:23:01.102Z,19
2023-05-31T07:24:01.108Z,19
2023-05-31T07:25:01.112Z,19
2023-05-31T07:26:01.112Z,19
2023-05-31T07:27:01.236Z,19
2023-05-31T07:28:01.249Z,19
2023-05-31T07:29:01.726Z,19
2023-05-31T07:30:01.038Z,19
2023-05-31T07:31:01.302Z,19
2023-05-31T07:32:02.627Z,19
2023-05-31T07:33:02.013Z,18.9
2023-05-31T07:34:01.147Z,18.9
2023-05-31T07:35:03.658Z,18.9
2023-05-31T07:36:01.906Z,18.8
2023-05-31T07:37:01.444Z,18.8
2023-05-31T07:38:01.982Z,18.8
2023-05-31T07:39:04.171Z,18.7
2023-05-31T07:40:00.715Z,18.8
2023-05-31T07:41:00.532Z,18.8
2023-05-31T07:42:00.240Z,18.8
2023-05-31T07:43:00.066Z,18.9
2023-05-31T07:43:59.998Z,19
2023-05-31T07:45:00.096Z,19
2023-05-31T07:45:59.926Z,19
2023-05-31T07:46:59.534Z,19.1
2023-05-31T07:48:02.870Z,19.1
2023-05-31T07:49:01.168Z,19.2
2023-05-31T07:50:01.086Z,19.2
2023-05-31T07:51:01.093Z,19.2
2023-05-31T07:52:01.094Z,19.2
2023-05-31T07:53:01.098Z,19.2
2023-05-31T07:54:01.104Z,19.3
2023-05-31T07:55:01.239Z,19.3
2023-05-31T07:56:01.129Z,19.3
2023-05-31T07:57:01.121Z,19.3
2023-05-31T07:58:01.151Z,19.3
2023-05-31T07:59:01.173Z,19.3
2023-05-31T08:00:01.850Z,19.3
2023-05-31T08:01:01.109Z,19.3
2023-05-31T08:02:01.878Z,19.3
2023-05-31T08:03:01.515Z,19.3
2023-05-31T08:04:01.086Z,19.4
2023-05-31T08:05:01.085Z,19.4
2023-05-31T08:06:01.079Z,19.4
2023-05-31T08:07:01.091Z,19.4
2023-05-31T08:08:01.086Z,19.5
2023-05-31T08:09:01.099Z,19.5
2023-05-31T08:10:01.113Z,19.5
2023-05-31T08:11:01.221Z,19.6
2023-05-31T08:12:01.231Z,19.7
2023-05-31T08:13:01.246Z,19.8
2023-05-31T08:14:01.054Z,19.8
2023-05-31T08:15:01.051Z,19.8
2023-05-31T08:16:01.032Z,19.8
2023-05-31T08:17:01.131Z,19.8
2023-05-31T08:18:01.178Z,19.8
2023-05-31T08:19:01.109Z,19.8
2023-05-31T08:20:00.888Z,19.8
2023-05-31T08:21:02.488Z,19.8
2023-05-31T08:22:01.495Z,19.8
2023-05-31T08:23:01.112Z,19.8
2023-05-31T08:24:01.129Z,19.8
2023-05-31T08:25:01.099Z,19.8
2023-05-31T08:26:01.309Z,19.9
2023-05-31T08:27:02.549Z,20
2023-05-31T08:28:01.129Z,20.1
2023-05-31T08:29:01.181Z,20.2
2023-05-31T08:30:01.032Z,20.3
2023-05-31T08:31:01.592Z,20.3
2023-05-31T08:32:02.107Z,20.3
2023-05-31T08:33:01.795Z,20.4
2023-05-31T08:34:01.872Z,20.5
2023-05-31T08:35:01.771Z,20.4
2023-05-31T08:36:04.288Z,20.4
2023-05-31T08:37:01.039Z,20.4
2023-05-31T08:38:01.023Z,20.4
2023-05-31T08:39:00.768Z,20.4
2023-05-31T08:40:00.691Z,20.3
2023-05-31T08:41:05.893Z,20.4
2023-05-31T08:42:02.052Z,20.4
2023-05-31T08:43:01.132Z,20.4
2023-05-31T08:44:01.357Z,20.5
2023-05-31T08:45:01.845Z,20.5
2023-05-31T08:46:09.740Z,20.6
2023-05-31T08:47:00.708Z,20.5
2023-05-31T08:48:00.743Z,20.5
2023-05-31T08:49:00.350Z,20.5
2023-05-31T08:50:00.139Z,20.5
2023-05-31T08:51:11.795Z,20.5
2023-05-31T08:52:01.273Z,20.5
2023-05-31T08:53:02.006Z,20.5
2023-05-31T08:54:01.622Z,20.5
2023-05-31T08:55:01.705Z,20.6
2023-05-31T08:56:15.479Z,20.6
2023-05-31T08:57:01.492Z,20.6
2023-05-31T08:58:01.125Z,20.6
2023-05-31T08:59:01.720Z,20.6
2023-05-31T09:00:00.811Z,20.7
2023-05-31T09:01:01.242Z,20.8
2023-05-31T09:02:01.071Z,20.8
2023-05-31T09:03:01.766Z,20.8
2023-05-31T09:04:02.236Z,20.9
2023-05-31T09:05:02.085Z,21
2023-05-31T09:06:01.110Z,21
2023-05-31T09:07:02.269Z,21.1
2023-05-31T09:08:01.749Z,21.1
2023-05-31T09:09:01.912Z,21.2
2023-05-31T09:10:01.315Z,21.2
2023-05-31T09:11:01.415Z,21.2
2023-05-31T09:12:01.139Z,21.2
2023-05-31T09:13:01.840Z,21.3
2023-05-31T09:14:02.019Z,21.3
2023-05-31T09:15:01.127Z,21.3
2023-05-31T09:16:01.194Z,21.3
2023-05-31T09:17:02.219Z,21.3
2023-05-31T09:18:02.439Z,21.3
2023-05-31T09:19:01.859Z,21.3
2023-05-31T09:20:01.188Z,21.3
2023-05-31T09:21:00.702Z,21.3
2023-05-31T09:22:01.084Z,21.2
2023-05-31T09:23:01.010Z,21.3
2023-05-31T09:24:01.271Z,21.3
2023-05-31T09:25:01.142Z,21.3
2023-05-31T09:26:01.092Z,21.3
2023-05-31T09:27:01.177Z,21.4
2023-05-31T09:28:01.219Z,21.5
2023-05-31T09:29:00.907Z,21.6
2023-05-31T09:30:01.139Z,21.6
2023-05-31T09:31:01.247Z,21.6
2023-05-31T09:32:01.156Z,21.6
2023-05-31T09:33:01.421Z,21.6
2023-05-31T09:34:01.427Z,21.6
2023-05-31T09:35:01.063Z,21.6
2023-05-31T09:36:01.063Z,21.7
2023-05-31T09:37:01.159Z,21.7
2023-05-31T09:38:01.102Z,21.7
2023-05-31T09:39:01.130Z,21.6
2023-05-31T09:40:00.961Z,21.7
2023-05-31T09:41:01.258Z,21.7
2023-05-31T09:42:01.157Z,21.7
2023-05-31T09:43:01.130Z,21.6
2023-05-31T09:44:01.118Z,21.7
2023-05-31T09:45:01.171Z,21.7
2023-05-31T09:46:01.138Z,21.7
2023-05-31T09:47:00.709Z,21.7
2023-05-31T09:48:00.307Z,21.7
2023-05-31T09:48:59.915Z,21.7
2023-05-31T09:49:59.696Z,21.8
2023-05-31T09:51:01.509Z,21.7
2023-05-31T09:52:02.169Z,21.8
2023-05-31T09:53:01.120Z,21.8
2023-05-31T09:54:01.084Z,21.8
2023-05-31T09:55:01.078Z,21.8
2023-05-31T09:56:01.071Z,21.8
2023-05-31T09:57:01.160Z,21.7
2023-05-31T09:58:01.660Z,21.7
2023-05-31T09:59:01.105Z,21.8
2023-05-31T10:00:00.896Z,21.8
2023-05-31T10:01:01.496Z,21.8
2023-05-31T10:02:01.158Z,21.8
2023-05-31T10:03:01.444Z,21.8
2023-05-31T10:04:01.301Z,21.9
2023-05-31T10:05:02.505Z,22
2023-05-31T10:06:01.728Z,22
2023-05-31T10:07:01.406Z,22
2023-05-31T10:08:04.155Z,22
2023-05-31T10:09:01.144Z,22.1
2023-05-31T10:10:01.335Z,22.1
2023-05-31T10:11:01.602Z,22.1
2023-05-31T10:12:04.250Z,22.1
2023-05-31T10:13:03.938Z,22.2
2023-05-31T10:14:01.294Z,22.2
2023-05-31T10:15:01.364Z,22.3
2023-05-31T10:16:01.538Z,22.2
2023-05-31T10:17:07.663Z,22.3
2023-05-31T10:18:01.371Z,22.3
2023-05-31T10:19:03.353Z,22.3
2023-05-31T10:20:01.154Z,22.3
2023-05-31T10:21:02.124Z,22.3
2023-05-31T10:22:10.382Z,22.3
2023-05-31T10:23:01.613Z,22.3
2023-05-31T10:24:02.175Z,22.3
2023-05-31T10:25:01.475Z,22.3
2023-05-31T10:26:01.433Z,22.2
2023-05-31T10:27:13.914Z,22.2
2023-05-31T10:28:02.092Z,22.3
2023-05-31T10:29:01.122Z,22.3
2023-05-31T10:30:01.558Z,22.3
2023-05-31T10:31:01.835Z,22.3
2023-05-31T10:32:16.146Z,22.3
2023-05-31T10:33:01.827Z,22.3
2023-05-31T10:34:02.205Z,22.4
2023-05-31T10:35:01.064Z,22.4
2023-05-31T10:36:01.070Z,22.5
2023-05-31T10:37:01.034Z,22.5
2023-05-31T10:38:01.039Z,22.4
2023-05-31T10:39:01.020Z,22.4
2023-05-31T10:40:00.739Z,22.3
2023-05-31T10:41:01.368Z,22.3
2023-05-31T10:42:01.148Z,22.3
2023-05-31T10:43:01.800Z,22.3
2023-05-31T10:44:01.119Z,22.3
2023-05-31T10:45:01.034Z,22.3
2023-05-31T10:46:01.109Z,22.3
2023-05-31T10:47:01.214Z,22.3
2023-05-31T10:48:01.726Z,22.4
2023-05-31T10:49:01.924Z,22.4
2023-05-31T10:50:01.017Z,22.4
2023-05-31T10:51:01.304Z,22.4
2023-05-31T10:52:01.115Z,22.4
2023-05-31T10:53:01.036Z,22.3
2023-05-31T10:54:01.053Z,22.4
2023-05-31T10:55:01.065Z,22.4
2023-05-31T10:56:01.019Z,22.4
2023-05-31T10:57:00.751Z,22.4
2023-05-31T10:58:00.371Z,22.4
2023-05-31T10:59:00.044Z,22.4
2023-05-31T10:59:59.957Z,22.4
2023-05-31T11:01:00.268Z,22.5
2023-05-31T11:02:00.180Z,22.5
2023-05-31T11:03:00.004Z,22.5
2023-05-31T11:03:59.717Z,22.5
2023-05-31T11:05:01.905Z,22.5
2023-05-31T11:06:01.218Z,22.5
2023-05-31T11:07:01.080Z,22.5
2023-05-31T11:08:01.061Z,22.5
2023-05-31T11:09:01.080Z,22.6
2023-05-31T11:10:01.324Z,22.6
2023-05-31T11:11:01.226Z,22.6
2023-05-31T11:12:01.065Z,22.6
2023-05-31T11:13:01.384Z,22.6
2023-05-31T11:14:02.286Z,22.6
2023-05-31T11:15:01.868Z,22.6
2023-05-31T11:16:02.000Z,22.6
2023-05-31T11:17:01.437Z,22.7
2023-05-31T11:18:01.132Z,22.7
2023-05-31T11:19:01.128Z,22.7
2023-05-31T11:20:00.817Z,22.7
2023-05-31T11:21:01.229Z,22.7
2023-05-31T11:22:01.045Z,22.8
2023-05-31T11:23:01.170Z,22.8
2023-05-31T11:24:01.040Z,22.8
2023-05-31T11:25:01.053Z,22.9
2023-05-31T11:26:01.055Z,22.9
2023-05-31T11:27:01.084Z,22.9
2023-05-31T11:28:01.024Z,22.9
2023-05-31T11:29:01.078Z,23
2023-05-31T11:30:01.712Z,23
2023-05-31T11:31:01.283Z,23.1
2023-05-31T11:32:01.504Z,23.1
2023-05-31T11:33:02.318Z,23.2
2023-05-31T11:34:01.106Z,23.3
2023-05-31T11:35:01.023Z,23.3
2023-05-31T11:36:01.140Z,23.4
2023-05-31T11:37:01.046Z,23.4
2023-05-31T11:38:01.028Z,23.3
2023-05-31T11:39:01.055Z,23.3
2023-05-31T11:40:00.896Z,23.3
2023-05-31T11:41:01.473Z,23.3
2023-05-31T11:42:01.099Z,23.3
2023-05-31T11:43:01.065Z,23.3
2023-05-31T11:44:01.071Z,23.3
2023-05-31T11:45:01.013Z,23.3
2023-05-31T11:46:01.106Z,23.2
2023-05-31T11:47:01.134Z,23.3
2023-05-31T11:48:01.878Z,23.2
2023-05-31T11:49:01.182Z,23.2
2023-05-31T11:50:01.140Z,23.3
2023-05-31T11:51:01.385Z,23.3
2023-05-31T11:52:01.146Z,23.3
2023-05-31T11:53:01.030Z,23.3
2023-05-31T11:54:01.206Z,23.3
2023-05-31T11:55:01.095Z,23.3
2023-05-31T11:56:01.057Z,23.4
2023-05-31T11:57:01.097Z,23.5
2023-05-31T11:58:01.486Z,23.5
2023-05-31T11:59:03.013Z,23.5
2023-05-31T12:00:01.193Z,23.5
2023-05-31T12:01:01.183Z,23.6
2023-05-31T12:02:01.302Z,23.6
2023-05-31T12:03:04.971Z,23.6
2023-05-31T12:04:02.613Z,23.6
2023-05-31T12:05:01.098Z,23.6
2023-05-31T12:06:01.119Z,23.6
2023-05-31T12:07:01.415Z,23.5
2023-05-31T12:08:06.860Z,23.5
2023-05-31T12:09:01.052Z,23.5
2023-05-31T12:10:01.036Z,23.6
2023-05-31T12:11:01.204Z,23.6
2023-05-31T12:12:01.529Z,23.7
2023-05-31T12:13:10.769Z,23.8
2023-05-31T12:14:01.430Z,23.8
2023-05-31T12:15:02.933Z,23.8
2023-05-31T12:16:01.181Z,23.9
2023-05-31T12:17:04.269Z,23.8
2023-05-31T12:18:13.575Z,23.8
2023-05-31T12:19:01.164Z,23.8
2023-05-31T12:20:00.906Z,23.9
2023-05-31T12:21:01.501Z,23.9
2023-05-31T12:22:01.277Z,24
2023-05-31T12:23:16.668Z,24.1
2023-05-31T12:24:02.270Z,24.1
2023-05-31T12:25:02.283Z,24.1
2023-05-31T12:26:01.033Z,24.1
2023-05-31T12:27:01.072Z,24
2023-05-31T12:28:01.064Z,24
2023-05-31T12:29:01.078Z,24
2023-05-31T12:30:01.072Z,24
2023-05-31T12:31:01.389Z,24.1
2023-05-31T12:32:01.491Z,24.1
2023-05-31T12:33:02.057Z,24.1
2023-05-31T12:34:01.120Z,24
2023-05-31T12:35:01.117Z,24
2023-05-31T12:36:01.107Z,23.9
2023-05-31T12:37:01.154Z,23.8
2023-05-31T12:38:01.167Z,23.8
2023-05-31T12:39:01.171Z,23.8
2023-05-31T12:40:00.829Z,23.9
2023-05-31T12:41:01.728Z,24
2023-05-31T12:42:01.190Z,24
2023-05-31T12:43:01.203Z,24
2023-05-31T12:44:01.097Z,24
2023-05-31T12:45:01.090Z,24
2023-05-31T12:46:01.164Z,24
2023-05-31T12:47:01.416Z,24
2023-05-31T12:48:02.208Z,24.1
2023-05-31T12:49:02.213Z,24.1
2023-05-31T12:50:01.239Z,24.1
2023-05-31T12:51:04.054Z,24.1
2023-05-31T12:52:01.783Z,24.1
2023-05-31T12:53:01.251Z,24.1
2023-05-31T12:54:01.194Z,24.1
2023-05-31T12:55:01.933Z,24.1
2023-05-31T12:56:01.861Z,24.2
2023-05-31T12:57:01.201Z,24.3
2023-05-31T12:58:05.459Z,24.4
2023-05-31T12:59:01.337Z,24.4
2023-05-31T13:00:00.740Z,24.5
2023-05-31T13:01:01.389Z,24.5
2023-05-31T13:02:01.126Z,24.4
2023-05-31T13:03:01.475Z,24.4
2023-05-31T13:04:01.473Z,24.4
2023-05-31T13:05:01.119Z,24.4
2023-05-31T13:06:01.861Z,24.4
2023-05-31T13:07:01.515Z,24.4
2023-05-31T13:08:01.122Z,24.4
2023-05-31T13:09:01.284Z,24.4
2023-05-31T13:10:04.128Z,24.4
2023-05-31T13:11:02.052Z,24.5
2023-05-31T13:12:01.173Z,24.5
2023-05-31T13:13:01.084Z,24.5
2023-05-31T13:14:01.860Z,24.5
2023-05-31T13:15:00.865Z,24.6
2023-05-31T13:16:00.560Z,24.6
2023-05-31T13:17:00.294Z,24.7
2023-05-31T13:18:00.348Z,24.7
2023-05-31T13:19:00.081Z,24.8
2023-05-31T13:20:11.038Z,24.8
2023-05-31T13:21:01.064Z,24.9
2023-05-31T13:22:01.113Z,24.9
2023-05-31T13:23:01.130Z,24.9
2023-05-31T13:24:01.847Z,24.8